Forside
METAR-TAF:

METAR-TAF

Lufthavne :

Chisholm-Hibbing Airport

Hibbing, Minnesota, USA

Breddekreds: 47-23-12N, længdekreds: 092-50-20W, højde: 412 m

Aktuelle vejr

Denne rapport blev lavet for 32 minutter siden, kl. 13:53 UTC
Vind 3 kt fra nordøst
Temperatur 7°C
Fugtighed 36%
Tryk 1029 hPa
Sigt: 16.1 km
skyfri

METAR: KHIB 111353Z AUTO 04003KT 10SM CLR 07/M07 A3039 RMK AO2 SLP304 T00721067

Tid: 09:25 (14:25 UTC)

Vejrudsigter

Denne rapport blev lavet for 3 timer og 5 minutter siden, kl. 11:20 UTC
Foreløbig gælder fra 11 på 12 UTC til 12 på 12 UTC
Vind 3 kt fra varierende retninger
Sigt: 10 km
skyfri
Fra 11 på 1700 UTC
Vind 6 kt fra vestnordvest
Sigt: 10 km
Nogle få skyer i en højde af 6000 ft
Fra 12 på 0300 UTC
Vind 3 kt fra varierende retninger
Sigt: 10 km
skyfri

TAF: KHIB 111120Z 1112/1212 VRB03KT P6SM SKC FM111700 29006KT P6SM FEW060 FM120300 VRB03KT P6SM SKC

Vejrobservationer og prognoser fra mere end 4000 lufthavne (METAR og TAF).

De gule og røde prikker repræsenterer de meteorologiske stationer.

Flyt musen over at se navnet på stationen.

Så klik over at se vejr observationer og prognoser.

At skifte det kort: Klik på de grønne knapper med et sort kors for at zoome ind; på den grønne knap med en bindestreg for at zoome ud; eller på de grønne pile for tilstødende kort.


METAR-TAF: